createdAt,value
2023-02-11T00:00:20.674Z,43.13
2023-02-11T00:02:48.172Z,41.80
2023-02-11T00:05:15.557Z,42.30
2023-02-11T00:07:42.593Z,36.00
2023-02-11T00:10:09.808Z,41.33
2023-02-11T00:12:37.639Z,42.87
2023-02-11T00:15:05.655Z,42.07
2023-02-11T00:17:33.104Z,38.80
2023-02-11T00:19:59.782Z,37.30
2023-02-11T00:22:27.089Z,40.43
2023-02-11T00:24:54.538Z,42.73
2023-02-11T00:27:21.670Z,40.63
2023-02-11T00:29:48.750Z,40.60
2023-02-11T00:32:15.730Z,36.83
2023-02-11T00:34:42.742Z,38.73
2023-02-11T00:37:09.830Z,36.87
2023-02-11T00:39:37.371Z,35.90
2023-02-11T00:42:04.478Z,41.37
2023-02-11T00:44:31.602Z,34.30
2023-02-11T00:46:58.615Z,43.83
2023-02-11T00:49:25.747Z,38.43
2023-02-11T00:51:52.783Z,34.37
2023-02-11T00:54:19.810Z,43.37
2023-02-11T00:56:47.003Z,44.17
2023-02-11T00:59:19.990Z,40.90
2023-02-11T01:01:46.979Z,69.95
2023-02-11T01:04:14.096Z,48.63
2023-02-11T01:06:41.130Z,55.73
2023-02-11T01:09:08.108Z,41.53
2023-02-11T01:11:35.329Z,46.00
2023-02-11T01:14:02.330Z,39.37
2023-02-11T01:16:29.672Z,42.53
2023-02-11T01:18:56.872Z,38.33
2023-02-11T01:21:24.026Z,35.93
2023-02-11T01:23:51.090Z,37.37
2023-02-11T01:26:19.889Z,36.37
2023-02-11T01:28:47.098Z,38.67
2023-02-11T01:31:14.223Z,37.53
2023-02-11T01:33:41.338Z,34.40
2023-02-11T01:36:08.837Z,33.70
2023-02-11T01:38:36.381Z,32.77
2023-02-11T01:41:05.049Z,30.83
2023-02-11T01:43:33.900Z,35.07
2023-02-11T01:46:19.562Z,39.37
2023-02-11T01:48:49.872Z,32.80
2023-02-11T01:51:22.990Z,37.23
2023-02-11T01:54:09.153Z,36.97
2023-02-11T01:56:56.383Z,36.67
2023-02-11T01:59:34.564Z,36.33
2023-02-11T02:02:05.553Z,48.07
2023-02-11T02:04:35.882Z,40.20
2023-02-11T02:07:09.269Z,31.13
2023-02-11T02:09:42.524Z,82.53
2023-02-11T02:12:09.521Z,208.48
2023-02-11T02:14:40.957Z,138.53
2023-02-11T02:17:10.977Z,52.20
2023-02-11T02:19:40.664Z,64.77
2023-02-11T02:22:34.086Z,85.67
2023-02-11T02:25:10.960Z,60.35
2023-02-11T02:27:56.445Z,53.20
2023-02-11T02:30:42.227Z,45.23
2023-02-11T02:33:24.549Z,64.33
2023-02-11T02:35:56.753Z,52.23
2023-02-11T02:38:26.392Z,50.80
2023-02-11T02:40:59.701Z,49.43
2023-02-11T02:43:27.065Z,52.53
2023-02-11T02:45:54.164Z,64.70
2023-02-11T02:48:32.220Z,53.63
2023-02-11T02:51:11.549Z,61.47
2023-02-11T02:53:53.813Z,73.97
2023-02-11T02:56:39.414Z,50.47
2023-02-11T02:59:24.531Z,62.97
2023-02-11T03:01:51.680Z,48.30
2023-02-11T03:04:23.865Z,49.10
2023-02-11T03:07:05.908Z,60.00
2023-02-11T03:09:39.796Z,51.77
2023-02-11T03:12:07.641Z,52.20
2023-02-11T03:14:36.389Z,67.67
2023-02-11T03:17:05.262Z,58.57
2023-02-11T03:19:38.065Z,61.93
2023-02-11T03:22:07.927Z,52.67
2023-02-11T03:24:36.154Z,44.90
2023-02-11T03:27:23.742Z,55.30
2023-02-11T03:30:05.481Z,49.43
2023-02-11T03:32:35.096Z,52.27
2023-02-11T03:35:04.801Z,43.67
2023-02-11T03:37:34.538Z,41.43
2023-02-11T03:40:07.276Z,47.00
2023-02-11T03:42:43.501Z,45.90
2023-02-11T03:45:12.795Z,45.57
2023-02-11T03:47:42.159Z,45.63
2023-02-11T03:50:10.758Z,49.07
2023-02-11T03:52:38.538Z,54.33
2023-02-11T03:55:17.513Z,52.17
2023-02-11T03:57:45.015Z,52.23
2023-02-11T04:00:12.523Z,47.53
2023-02-11T04:02:40.083Z,55.00
2023-02-11T04:05:08.468Z,48.77
2023-02-11T04:07:35.551Z,51.17
2023-02-11T04:10:02.734Z,50.97
2023-02-11T04:12:29.840Z,53.13
2023-02-11T04:14:56.783Z,52.47
2023-02-11T04:17:23.994Z,54.03
2023-02-11T04:19:50.992Z,51.87
2023-02-11T04:22:18.121Z,51.63
2023-02-11T04:24:45.057Z,54.13
2023-02-11T04:27:11.580Z,48.60
2023-02-11T04:29:38.730Z,50.20
2023-02-11T04:32:06.053Z,51.93
2023-02-11T04:34:32.702Z,167.43
2023-02-11T04:36:59.792Z,219.03
2023-02-11T04:39:26.200Z,79.83
2023-02-11T04:41:53.193Z,91.27
2023-02-11T04:44:20.274Z,49.50
2023-02-11T04:46:47.182Z,293.10
2023-02-11T04:49:15.353Z,337.27
2023-02-11T04:51:42.789Z,672.50
2023-02-11T04:54:09.747Z,145.73
2023-02-11T04:56:37.037Z,81.93
2023-02-11T04:59:04.349Z,203.33
2023-02-11T05:01:31.531Z,107.40
2023-02-11T05:03:58.736Z,60.63
2023-02-11T05:06:25.837Z,56.90
2023-02-11T05:08:52.942Z,79.40
2023-02-11T05:11:21.514Z,68.57
2023-02-11T05:13:48.586Z,59.97
2023-02-11T05:16:15.927Z,109.27
2023-02-11T05:18:43.730Z,63.73
2023-02-11T05:21:12.715Z,75.73
2023-02-11T05:23:40.329Z,63.90
2023-02-11T05:26:07.693Z,83.37
2023-02-11T05:28:35.800Z,70.47
2023-02-11T05:31:02.979Z,70.40
2023-02-11T05:33:29.528Z,72.30
2023-02-11T05:36:00.797Z,96.43
2023-02-11T05:38:28.200Z,61.73
2023-02-11T05:40:56.706Z,78.07
2023-02-11T05:43:23.673Z,115.23
2023-02-11T05:45:51.093Z,61.30
2023-02-11T05:48:18.340Z,71.03
2023-02-11T05:50:45.429Z,70.17
2023-02-11T05:53:12.111Z,59.43
2023-02-11T05:55:38.849Z,56.50
2023-02-11T05:58:06.614Z,51.80
2023-02-11T06:00:33.086Z,56.70
2023-02-11T06:02:59.687Z,51.37
2023-02-11T06:05:26.884Z,56.67
2023-02-11T06:07:54.081Z,58.67
2023-02-11T06:10:20.642Z,51.40
2023-02-11T06:12:47.671Z,49.00
2023-02-11T06:15:14.174Z,57.30
2023-02-11T06:17:41.428Z,52.43
2023-02-11T06:20:08.703Z,47.13
2023-02-11T06:22:35.368Z,46.33
2023-02-11T06:25:02.605Z,44.73
2023-02-11T06:27:30.245Z,51.10
2023-02-11T06:29:56.894Z,64.50
2023-02-11T06:32:43.344Z,44.70
2023-02-11T06:35:12.059Z,46.33
2023-02-11T06:37:38.871Z,54.97
2023-02-11T06:40:06.181Z,45.17
2023-02-11T06:42:33.213Z,45.90
2023-02-11T06:44:59.840Z,47.10
2023-02-11T06:47:26.993Z,49.87
2023-02-11T06:49:54.188Z,42.47
2023-02-11T06:52:20.660Z,45.67
2023-02-11T06:54:47.762Z,45.23
2023-02-11T06:57:14.442Z,50.60
2023-02-11T06:59:41.334Z,44.60
2023-02-11T07:02:10.147Z,52.17
2023-02-11T07:04:37.046Z,47.80
2023-02-11T07:07:03.931Z,49.93
2023-02-11T07:09:30.953Z,46.83
2023-02-11T07:11:57.478Z,46.20
2023-02-11T07:14:24.393Z,45.63
2023-02-11T07:16:50.968Z,47.13
2023-02-11T07:19:17.507Z,48.97
2023-02-11T07:21:44.686Z,44.47
2023-02-11T07:24:11.970Z,66.57
2023-02-11T07:26:38.557Z,69.97
2023-02-11T07:29:05.664Z,51.37
2023-02-11T07:31:33.124Z,50.00
2023-02-11T07:34:00.967Z,47.10
2023-02-11T07:36:28.522Z,49.23
2023-02-11T07:38:55.066Z,50.03
2023-02-11T07:41:22.353Z,43.17
2023-02-11T07:43:49.206Z,38.50
2023-02-11T07:46:18.110Z,40.20
2023-02-11T07:48:45.544Z,41.60
2023-02-11T07:51:13.663Z,37.20
2023-02-11T07:53:41.041Z,42.53
2023-02-11T07:56:09.051Z,37.87
2023-02-11T07:58:36.347Z,45.90
2023-02-11T08:01:06.882Z,39.87
2023-02-11T08:03:33.883Z,35.30
2023-02-11T08:06:04.175Z,57.73
2023-02-11T08:08:31.016Z,56.30
2023-02-11T08:10:57.688Z,44.70
2023-02-11T08:13:24.863Z,38.90
2023-02-11T08:15:51.818Z,42.43
2023-02-11T08:18:18.678Z,33.27
2023-02-11T08:20:45.470Z,35.60
2023-02-11T08:23:12.043Z,40.47
2023-02-11T08:25:38.845Z,37.03
2023-02-11T08:28:05.341Z,38.87
2023-02-11T08:30:32.939Z,36.57
2023-02-11T08:32:59.726Z,40.23
2023-02-11T08:35:26.601Z,38.67
2023-02-11T08:37:53.268Z,37.10
2023-02-11T08:40:19.834Z,40.13
2023-02-11T08:42:46.690Z,38.67
2023-02-11T08:45:13.450Z,34.23
2023-02-11T08:47:39.947Z,41.57
2023-02-11T08:50:06.934Z,39.40
2023-02-11T08:52:33.406Z,36.70
2023-02-11T08:55:00.369Z,35.87
2023-02-11T08:57:27.352Z,35.97
2023-02-11T08:59:53.866Z,33.47
2023-02-11T09:02:20.764Z,38.03
2023-02-11T09:04:47.549Z,34.33
2023-02-11T09:07:14.506Z,36.40
2023-02-11T09:09:41.505Z,35.00
2023-02-11T09:12:08.401Z,30.80
2023-02-11T09:14:34.953Z,34.30
2023-02-11T09:17:01.867Z,35.53
2023-02-11T09:19:28.586Z,35.37
2023-02-11T09:21:55.051Z,33.57
2023-02-11T09:24:21.514Z,37.67
2023-02-11T09:26:48.060Z,32.43
2023-02-11T09:29:15.118Z,33.67
2023-02-11T09:31:41.770Z,34.27
2023-02-11T09:34:09.182Z,29.83
2023-02-11T09:36:40.403Z,33.17
2023-02-11T09:39:08.369Z,32.03
2023-02-11T09:41:53.643Z,31.07
2023-02-11T09:44:21.253Z,35.83
2023-02-11T09:46:53.272Z,30.80
2023-02-11T09:49:26.484Z,30.10
2023-02-11T09:52:16.018Z,37.60
2023-02-11T09:55:02.717Z,30.87
2023-02-11T09:57:33.726Z,33.10
2023-02-11T10:00:01.469Z,30.97
2023-02-11T10:02:30.709Z,33.97
2023-02-11T10:05:16.727Z,33.40
2023-02-11T10:08:10.123Z,35.83
2023-02-11T10:10:45.779Z,32.97
2023-02-11T10:13:25.364Z,35.97
2023-02-11T10:15:58.652Z,35.97
2023-02-11T10:18:46.543Z,30.13
2023-02-11T10:21:19.971Z,33.53
2023-02-11T10:23:48.755Z,35.60
2023-02-11T10:26:16.618Z,36.40
2023-02-11T10:28:45.219Z,34.95
2023-02-11T10:31:16.061Z,34.60
2023-02-11T10:33:45.407Z,37.63
2023-02-11T10:36:12.856Z,39.33
2023-02-11T10:38:39.787Z,35.45
2023-02-11T10:41:06.835Z,34.05
2023-02-11T10:43:34.106Z,34.10
2023-02-11T10:46:02.978Z,34.30
2023-02-11T10:48:45.841Z,36.08
2023-02-11T10:51:18.208Z,40.00
2023-02-11T10:53:45.449Z,32.07
2023-02-11T10:56:14.456Z,33.17
2023-02-11T10:58:41.359Z,34.00
2023-02-11T11:01:23.231Z,37.33
2023-02-11T11:03:51.329Z,37.63
2023-02-11T11:06:28.166Z,30.40
2023-02-11T11:08:55.522Z,38.53
2023-02-11T11:11:23.187Z,39.00
2023-02-11T11:13:52.528Z,33.05
2023-02-11T11:16:24.915Z,33.72
2023-02-11T11:18:52.945Z,35.47
2023-02-11T11:21:21.502Z,39.33
2023-02-11T11:23:55.604Z,33.65
2023-02-11T11:26:22.301Z,36.37
2023-02-11T11:28:51.635Z,34.17
2023-02-11T11:31:27.026Z,32.07
2023-02-11T11:33:55.596Z,34.53
2023-02-11T11:36:23.833Z,33.63
2023-02-11T11:38:55.684Z,38.07
2023-02-11T11:41:33.194Z,42.10
2023-02-11T11:44:18.614Z,34.50
2023-02-11T11:46:46.435Z,35.33
2023-02-11T11:49:13.134Z,34.97
2023-02-11T11:51:41.255Z,34.45
2023-02-11T11:54:11.207Z,35.17
2023-02-11T11:57:13.436Z,37.70
2023-02-11T11:59:40.053Z,40.88
2023-02-11T12:02:26.779Z,40.00
2023-02-11T12:04:59.800Z,39.33
2023-02-11T12:07:41.412Z,39.53
2023-02-11T12:10:20.637Z,38.17
2023-02-11T12:13:22.601Z,57.80
2023-02-11T12:15:55.557Z,40.53
2023-02-11T12:18:38.714Z,34.05
2023-02-11T12:21:14.350Z,39.65
2023-02-11T12:23:50.516Z,37.70
2023-02-11T12:26:21.729Z,38.43
2023-02-11T12:29:06.320Z,39.00
2023-02-11T12:31:54.339Z,38.53
2023-02-11T12:34:39.361Z,42.40
2023-02-11T12:37:20.956Z,43.33
2023-02-11T12:40:06.068Z,40.60
2023-02-11T12:43:03.904Z,38.30
2023-02-11T12:45:39.773Z,39.77
2023-02-11T12:48:25.684Z,40.63
2023-02-11T12:50:59.258Z,36.73
2023-02-11T12:53:44.589Z,44.17
2023-02-11T12:56:16.670Z,37.33
2023-02-11T12:58:45.697Z,45.83
2023-02-11T13:01:19.188Z,44.03
2023-02-11T13:03:48.768Z,49.78
2023-02-11T13:06:18.740Z,39.63
2023-02-11T13:08:56.334Z,43.57
2023-02-11T13:11:33.305Z,45.20
2023-02-11T13:14:00.227Z,43.30
2023-02-11T13:16:26.662Z,39.10
2023-02-11T13:19:06.637Z,38.53
2023-02-11T13:21:39.120Z,44.13
2023-02-11T13:24:08.742Z,45.17
2023-02-11T13:26:45.844Z,49.97
2023-02-11T13:29:19.234Z,37.53
2023-02-11T13:31:53.438Z,39.47
2023-02-11T13:34:37.796Z,38.10
2023-02-11T13:37:04.320Z,42.83
2023-02-11T13:39:30.931Z,39.23
2023-02-11T13:42:02.546Z,37.43
2023-02-11T13:44:29.256Z,42.47
2023-02-11T13:46:58.429Z,48.30
2023-02-11T13:49:24.918Z,38.23
2023-02-11T13:51:51.711Z,39.93
2023-02-11T13:54:26.560Z,39.13
2023-02-11T13:57:16.802Z,41.63
2023-02-11T13:59:43.952Z,38.60
2023-02-11T14:02:48.416Z,37.40
2023-02-11T14:05:36.959Z,39.28
2023-02-11T14:08:28.911Z,44.63
2023-02-11T14:10:55.444Z,41.30
2023-02-11T14:13:35.905Z,38.57
2023-02-11T14:16:08.522Z,44.40
2023-02-11T14:18:35.088Z,39.80
2023-02-11T14:21:23.144Z,40.97
2023-02-11T14:23:50.514Z,46.47
2023-02-11T14:26:20.176Z,36.20
2023-02-11T14:28:54.525Z,40.47
2023-02-11T14:31:25.202Z,37.30
2023-02-11T14:34:04.155Z,35.97
2023-02-11T14:36:33.866Z,41.07
2023-02-11T14:39:18.556Z,40.17
2023-02-11T14:41:46.854Z,42.67
2023-02-11T14:44:19.752Z,43.87
2023-02-11T14:46:47.707Z,42.08
2023-02-11T14:49:28.721Z,37.80
2023-02-11T14:52:00.727Z,37.23
2023-02-11T14:54:28.633Z,37.67
2023-02-11T14:57:08.880Z,43.17
2023-02-11T14:59:35.424Z,38.38
2023-02-11T15:02:01.953Z,40.17
2023-02-11T15:04:30.482Z,40.73
2023-02-11T15:06:59.901Z,40.10
2023-02-11T15:09:37.350Z,41.77
2023-02-11T15:12:04.095Z,40.40
2023-02-11T15:14:32.012Z,39.60
2023-02-11T15:17:00.392Z,43.27
2023-02-11T15:19:34.418Z,36.63
2023-02-11T15:22:01.500Z,35.87
2023-02-11T15:24:32.179Z,41.40
2023-02-11T15:27:00.220Z,40.50
2023-02-11T15:29:28.566Z,41.20
2023-02-11T15:32:13.730Z,40.42
2023-02-11T15:34:40.928Z,42.50
2023-02-11T15:37:07.962Z,45.47
2023-02-11T15:39:37.386Z,40.37
2023-02-11T15:42:24.298Z,43.87
2023-02-11T15:45:07.126Z,46.07
2023-02-11T15:47:36.163Z,44.73
2023-02-11T15:50:03.110Z,47.87
2023-02-11T15:52:30.377Z,47.10
2023-02-11T15:55:00.073Z,45.55
2023-02-11T15:57:26.644Z,47.63
2023-02-11T15:59:54.199Z,49.78
2023-02-11T16:02:22.661Z,94.90
2023-02-11T16:04:51.533Z,51.10
2023-02-11T16:07:37.329Z,50.05
2023-02-11T16:10:04.217Z,54.30
2023-02-11T16:12:30.852Z,51.03
2023-02-11T16:14:59.897Z,54.05
2023-02-11T16:17:28.434Z,48.40
2023-02-11T16:19:55.437Z,47.13
2023-02-11T16:22:30.470Z,52.28
2023-02-11T16:24:58.956Z,49.08
2023-02-11T16:27:30.072Z,45.40
2023-02-11T16:29:57.275Z,49.92
2023-02-11T16:32:26.112Z,45.03
2023-02-11T16:34:54.138Z,48.05
2023-02-11T16:37:21.347Z,45.17
2023-02-11T16:39:48.441Z,41.92
2023-02-11T16:42:15.363Z,39.13
2023-02-11T16:44:42.408Z,42.35
2023-02-11T16:47:19.328Z,42.83
2023-02-11T16:49:46.256Z,41.25
2023-02-11T16:52:15.116Z,37.53
2023-02-11T16:54:42.189Z,39.30
2023-02-11T16:57:16.978Z,36.15
2023-02-11T16:59:43.802Z,36.25
2023-02-11T17:02:30.752Z,36.33
2023-02-11T17:05:08.784Z,34.63
2023-02-11T17:07:35.830Z,35.78
2023-02-11T17:10:02.373Z,37.20
2023-02-11T17:12:29.405Z,39.63
2023-02-11T17:14:56.150Z,35.70
2023-02-11T17:17:23.967Z,40.38
2023-02-11T17:19:51.282Z,32.22
2023-02-11T17:22:18.555Z,39.67
2023-02-11T17:24:45.499Z,36.65
2023-02-11T17:27:12.337Z,36.20
2023-02-11T17:29:39.328Z,38.90
2023-02-11T17:32:06.112Z,38.85
2023-02-11T17:34:32.727Z,36.13
2023-02-11T17:37:00.474Z,40.25
2023-02-11T17:39:27.677Z,32.63
2023-02-11T17:41:54.304Z,32.03
2023-02-11T17:44:21.274Z,33.78
2023-02-11T17:46:47.974Z,36.28
2023-02-11T17:49:14.660Z,36.67
2023-02-11T17:51:41.533Z,40.95
2023-02-11T17:54:10.500Z,36.58
2023-02-11T17:56:38.041Z,39.08
2023-02-11T17:59:05.108Z,39.15
2023-02-11T18:01:35.169Z,38.22
2023-02-11T18:04:02.473Z,36.72
2023-02-11T18:06:29.387Z,37.67
2023-02-11T18:08:58.112Z,32.22
2023-02-11T18:11:25.305Z,36.58
2023-02-11T18:13:54.513Z,36.67
2023-02-11T18:16:21.877Z,36.38
2023-02-11T18:18:49.939Z,37.00
2023-02-11T18:21:17.531Z,33.90
2023-02-11T18:23:44.368Z,36.20
2023-02-11T18:26:12.126Z,31.90
2023-02-11T18:28:39.187Z,35.78
2023-02-11T18:31:06.875Z,29.75
2023-02-11T18:33:34.493Z,31.33
2023-02-11T18:36:04.680Z,35.45
2023-02-11T18:38:31.423Z,30.75
2023-02-11T18:40:58.666Z,31.55
2023-02-11T18:43:26.116Z,33.08
2023-02-11T18:45:53.390Z,34.60
2023-02-11T18:48:20.335Z,35.72
2023-02-11T18:50:47.143Z,31.98
2023-02-11T18:53:14.671Z,34.58
2023-02-11T18:55:42.622Z,31.33
2023-02-11T18:58:10.143Z,31.20
2023-02-11T19:00:39.370Z,32.20
2023-02-11T19:03:06.405Z,31.27
2023-02-11T19:05:36.139Z,30.08
2023-02-11T19:08:03.269Z,31.48
2023-02-11T19:10:30.645Z,31.00
2023-02-11T19:12:59.479Z,32.33
2023-02-11T19:15:26.660Z,30.00
2023-02-11T19:17:53.589Z,32.20
2023-02-11T19:20:20.672Z,29.55
2023-02-11T19:22:47.913Z,35.90
2023-02-11T19:25:14.433Z,38.90
2023-02-11T19:27:44.022Z,40.42
2023-02-11T19:30:12.523Z,37.25
2023-02-11T19:32:39.732Z,35.22
2023-02-11T19:35:07.219Z,31.23
2023-02-11T19:37:34.370Z,27.75
2023-02-11T19:40:01.360Z,31.83
2023-02-11T19:42:28.801Z,29.92
2023-02-11T19:44:56.479Z,31.83
2023-02-11T19:47:28.370Z,31.13
2023-02-11T19:49:56.711Z,31.63
2023-02-11T19:52:24.053Z,27.42
2023-02-11T19:54:51.616Z,30.38
2023-02-11T19:57:18.899Z,28.98
2023-02-11T19:59:46.321Z,31.52
2023-02-11T20:02:13.877Z,28.45
2023-02-11T20:04:40.956Z,30.00
2023-02-11T20:07:08.417Z,31.40
2023-02-11T20:09:35.565Z,32.55
2023-02-11T20:12:02.792Z,30.40
2023-02-11T20:14:30.017Z,31.83
2023-02-11T20:16:56.701Z,33.75
2023-02-11T20:19:23.389Z,29.05
2023-02-11T20:21:52.524Z,27.88
2023-02-11T20:24:20.150Z,30.42
2023-02-11T20:26:48.911Z,29.75
2023-02-11T20:29:17.477Z,28.15
2023-02-11T20:31:44.792Z,29.65
2023-02-11T20:34:13.145Z,32.80
2023-02-11T20:36:41.237Z,29.90
2023-02-11T20:39:08.411Z,29.42
2023-02-11T20:41:36.108Z,29.98
2023-02-11T20:44:05.213Z,28.02
2023-02-11T20:46:33.441Z,28.15
2023-02-11T20:49:01.630Z,29.65
2023-02-11T20:51:33.736Z,32.78
2023-02-11T20:54:01.920Z,29.58
2023-02-11T20:56:30.851Z,31.33
2023-02-11T20:58:59.146Z,29.02
2023-02-11T21:01:27.598Z,28.77
2023-02-11T21:03:56.202Z,31.58
2023-02-11T21:06:24.348Z,28.02
2023-02-11T21:08:51.644Z,28.63
2023-02-11T21:11:18.848Z,26.15
2023-02-11T21:13:47.233Z,24.42
2023-02-11T21:16:15.707Z,26.27
2023-02-11T21:18:43.231Z,24.67
2023-02-11T21:21:10.683Z,24.42
2023-02-11T21:23:40.447Z,24.27
2023-02-11T21:26:08.485Z,25.73
2023-02-11T21:28:38.478Z,23.77
2023-02-11T21:31:06.899Z,26.05
2023-02-11T21:33:35.115Z,22.95
2023-02-11T21:36:04.127Z,22.33
2023-02-11T21:38:31.698Z,25.15
2023-02-11T21:41:03.368Z,25.45
2023-02-11T21:43:30.639Z,24.73
2023-02-11T21:45:57.985Z,22.10
2023-02-11T21:48:25.923Z,26.92
2023-02-11T21:50:53.268Z,24.88
2023-02-11T21:53:20.471Z,22.83
2023-02-11T21:55:47.619Z,24.00
2023-02-11T21:58:14.915Z,21.05
2023-02-11T22:00:41.668Z,22.38
2023-02-11T22:03:08.298Z,23.73
2023-02-11T22:05:35.465Z,22.23
2023-02-11T22:08:02.737Z,21.55
2023-02-11T22:10:29.823Z,19.83
2023-02-11T22:12:56.939Z,19.98
2023-02-11T22:15:24.126Z,24.95
2023-02-11T22:17:51.184Z,23.50
2023-02-11T22:20:18.354Z,27.38
2023-02-11T22:22:45.272Z,22.90
2023-02-11T22:25:12.585Z,23.40
2023-02-11T22:27:39.655Z,32.90
2023-02-11T22:30:08.196Z,24.75
2023-02-11T22:32:35.234Z,30.38
2023-02-11T22:35:02.697Z,25.70
2023-02-11T22:37:29.716Z,25.67
2023-02-11T22:39:56.903Z,22.75
2023-02-11T22:42:23.471Z,22.50
2023-02-11T22:44:50.503Z,20.38
2023-02-11T22:47:17.736Z,21.75
2023-02-11T22:49:44.324Z,21.80
2023-02-11T22:52:11.257Z,26.52
2023-02-11T22:54:39.176Z,23.70
2023-02-11T22:57:06.104Z,23.92
2023-02-11T22:59:33.118Z,22.58
2023-02-11T23:02:00.330Z,24.83
2023-02-11T23:04:27.569Z,25.60
2023-02-11T23:06:54.495Z,23.75
2023-02-11T23:09:21.532Z,30.23
2023-02-11T23:11:49.934Z,28.42
2023-02-11T23:14:17.119Z,26.38
2023-02-11T23:16:44.328Z,28.50
2023-02-11T23:19:11.701Z,29.02
2023-02-11T23:21:39.586Z,27.75
2023-02-11T23:24:08.380Z,29.77
2023-02-11T23:26:36.084Z,28.15
2023-02-11T23:29:03.655Z,29.98
2023-02-11T23:31:34.448Z,24.48
2023-02-11T23:34:01.801Z,30.70
2023-02-11T23:36:29.284Z,29.20
2023-02-11T23:38:56.508Z,28.27
2023-02-11T23:41:23.772Z,23.58
2023-02-11T23:43:54.725Z,21.52
2023-02-11T23:46:25.225Z,25.88
2023-02-11T23:48:53.189Z,25.90
2023-02-11T23:51:20.589Z,24.70
2023-02-11T23:53:49.566Z,40.10
2023-02-11T23:56:18.417Z,31.23
2023-02-11T23:58:47.582Z,27.63
